createdAt,value
2019-05-12T00:00:40.588Z,8.23
2019-05-12T00:03:12.011Z,9.47
2019-05-12T00:05:42.596Z,6.53
2019-05-12T00:08:13.379Z,8.97
2019-05-12T00:10:44.209Z,10.47
2019-05-12T00:13:14.644Z,9.07
2019-05-12T00:15:45.133Z,10.57
2019-05-12T00:18:18.075Z,9.63
2019-05-12T00:20:48.093Z,6.73
2019-05-12T00:23:24.949Z,7.70
2019-05-12T00:25:50.737Z,6.93
2019-05-12T00:28:21.173Z,9.90
2019-05-12T00:30:52.346Z,6.13
2019-05-12T00:33:22.770Z,5.57
2019-05-12T00:35:53.200Z,9.40
2019-05-12T00:38:24.413Z,12.40
2019-05-12T00:40:55.212Z,7.23
2019-05-12T00:43:27.927Z,9.50
2019-05-12T00:45:58.823Z,7.20
2019-05-12T00:48:29.640Z,8.27
2019-05-12T00:51:00.076Z,11.77
2019-05-12T00:53:39.614Z,8.53
2019-05-12T00:56:03.077Z,8.23
2019-05-12T00:58:34.839Z,8.80
2019-05-12T01:01:07.977Z,8.80
2019-05-12T01:03:38.221Z,11.00
2019-05-12T01:06:08.868Z,9.30
2019-05-12T01:08:39.347Z,10.33
2019-05-12T01:11:10.092Z,6.00
2019-05-12T01:13:40.517Z,7.73
2019-05-12T01:16:10.998Z,8.80
2019-05-12T01:18:41.748Z,8.90
2019-05-12T01:21:12.645Z,7.93
2019-05-12T01:23:53.814Z,8.03
2019-05-12T01:26:17.707Z,11.13
2019-05-12T01:28:48.765Z,10.53
2019-05-12T01:31:21.724Z,6.97
2019-05-12T01:33:52.156Z,9.33
2019-05-12T01:36:22.812Z,6.80
2019-05-12T01:38:53.620Z,9.43
2019-05-12T01:41:24.442Z,8.70
2019-05-12T01:43:54.916Z,7.13
2019-05-12T01:46:25.730Z,12.37
2019-05-12T01:48:58.930Z,7.67
2019-05-12T01:51:29.118Z,7.33
2019-05-12T01:54:10.973Z,9.97
2019-05-12T01:56:31.678Z,9.10
2019-05-12T01:59:02.149Z,8.73
2019-05-12T02:01:33.832Z,7.97
2019-05-12T02:04:04.554Z,6.47
2019-05-12T02:06:34.984Z,7.03
2019-05-12T02:09:08.872Z,7.40
2019-05-12T02:11:39.645Z,11.67
2019-05-12T02:14:10.075Z,8.50
2019-05-12T02:16:40.516Z,10.40
2019-05-12T02:19:11.344Z,5.53
2019-05-12T02:21:41.773Z,11.67
2019-05-12T02:24:23.469Z,5.03
2019-05-12T02:26:44.680Z,8.23
2019-05-12T02:29:15.111Z,8.07
2019-05-12T02:31:45.542Z,6.07
2019-05-12T02:34:16.109Z,11.53
2019-05-12T02:36:47.231Z,10.63
2019-05-12T02:39:17.648Z,8.17
2019-05-12T02:41:48.781Z,10.63
2019-05-12T02:44:19.485Z,9.30
2019-05-12T02:46:49.926Z,11.27
2019-05-12T02:49:20.399Z,12.13
2019-05-12T02:51:50.830Z,8.97
2019-05-12T02:54:27.014Z,9.13
2019-05-12T02:56:57.086Z,6.20
2019-05-12T02:59:30.223Z,8.67
2019-05-12T03:02:05.164Z,6.43
2019-05-12T03:04:35.559Z,11.43
2019-05-12T03:07:06.653Z,6.53
2019-05-12T03:09:39.369Z,7.50
2019-05-12T03:12:09.962Z,6.03
2019-05-12T03:14:41.242Z,6.10
2019-05-12T03:17:15.354Z,7.13
2019-05-12T03:19:45.443Z,9.03
2019-05-12T03:22:16.550Z,8.33
2019-05-12T03:25:05.988Z,8.53
2019-05-12T03:27:19.899Z,8.50
2019-05-12T03:29:50.593Z,7.53
2019-05-12T03:32:26.666Z,7.93
2019-05-12T03:34:57.828Z,10.57
2019-05-12T03:37:30.923Z,11.23
2019-05-12T03:39:58.618Z,8.03
2019-05-12T03:42:29.047Z,12.63
2019-05-12T03:44:59.829Z,12.60
2019-05-12T03:47:30.314Z,11.27
2019-05-12T03:50:04.357Z,11.63
2019-05-12T03:52:34.961Z,7.53
2019-05-12T03:55:06.024Z,9.53
2019-05-12T03:57:36.460Z,7.13
2019-05-12T04:00:07.340Z,9.53
2019-05-12T04:02:38.162Z,10.23
2019-05-12T04:05:09.099Z,13.20
2019-05-12T04:07:39.844Z,8.60
2019-05-12T04:10:14.775Z,8.43
2019-05-12T04:12:45.027Z,7.60
2019-05-12T04:15:16.039Z,9.00
2019-05-12T04:17:47.487Z,6.27
2019-05-12T04:20:17.902Z,6.00
2019-05-12T04:22:48.378Z,7.70
2019-05-12T04:25:18.810Z,12.60
2019-05-12T04:27:49.687Z,10.47
2019-05-12T04:30:20.873Z,8.93
2019-05-12T04:32:51.302Z,11.90
2019-05-12T04:35:24.876Z,9.87
2019-05-12T04:37:55.355Z,10.37
2019-05-12T04:40:26.094Z,8.43
2019-05-12T04:42:56.513Z,9.23
2019-05-12T04:45:27.414Z,9.03
2019-05-12T04:47:58.173Z,10.63
2019-05-12T04:50:28.609Z,15.13
2019-05-12T04:52:59.098Z,8.00
2019-05-12T04:55:29.859Z,7.47
2019-05-12T04:58:00.298Z,8.20
2019-05-12T05:00:34.472Z,10.83
2019-05-12T05:03:05.040Z,6.70
2019-05-12T05:05:36.369Z,11.30
2019-05-12T05:08:06.922Z,12.00
2019-05-12T05:10:37.981Z,7.83
2019-05-12T05:13:08.753Z,8.20
2019-05-12T05:15:39.248Z,8.90
2019-05-12T05:18:09.669Z,10.67
2019-05-12T05:20:40.091Z,8.77
2019-05-12T05:23:10.924Z,12.33
2019-05-12T05:25:43.455Z,7.57
2019-05-12T05:28:14.668Z,11.27
2019-05-12T05:30:46.092Z,7.77
2019-05-12T05:33:19.702Z,11.30
2019-05-12T05:35:49.339Z,8.60
2019-05-12T05:38:20.940Z,7.40
2019-05-12T05:40:53.988Z,10.90
2019-05-12T05:43:24.277Z,11.03
2019-05-12T05:46:02.644Z,6.50
2019-05-12T05:48:27.361Z,7.70
2019-05-12T05:50:59.913Z,8.50
2019-05-12T05:53:30.299Z,15.77
2019-05-12T05:56:01.056Z,8.63
2019-05-12T05:58:33.776Z,8.67
2019-05-12T06:01:07.766Z,8.90
2019-05-12T06:03:36.142Z,4.77
2019-05-12T06:06:12.171Z,9.60
2019-05-12T06:08:39.455Z,9.73
2019-05-12T06:11:14.688Z,8.07
2019-05-12T06:13:44.333Z,8.63
2019-05-12T06:16:20.390Z,6.43
2019-05-12T06:18:47.106Z,5.57
2019-05-12T06:21:18.323Z,7.63
2019-05-12T06:23:49.237Z,7.40
2019-05-12T06:26:21.029Z,9.67
2019-05-12T06:28:55.942Z,7.57
2019-05-12T06:31:29.623Z,5.43
2019-05-12T06:33:56.791Z,5.10
2019-05-12T06:36:28.039Z,12.90
2019-05-12T06:38:58.840Z,6.53
2019-05-12T06:41:29.953Z,7.57
2019-05-12T06:44:00.372Z,9.87
2019-05-12T06:46:31.272Z,6.20
2019-05-12T06:49:10.132Z,6.07
2019-05-12T06:51:34.084Z,6.83
2019-05-12T06:54:07.411Z,7.63
2019-05-12T06:56:36.760Z,8.27
2019-05-12T06:59:11.672Z,11.00
2019-05-12T07:01:39.373Z,7.03
2019-05-12T07:04:10.259Z,7.63
2019-05-12T07:06:41.090Z,5.53
2019-05-12T07:09:16.390Z,5.30
2019-05-12T07:11:52.983Z,10.13
2019-05-12T07:14:22.410Z,10.33
2019-05-12T07:17:01.394Z,7.60
2019-05-12T07:19:25.710Z,6.40
2019-05-12T07:22:00.105Z,5.90
2019-05-12T07:24:29.497Z,7.00
2019-05-12T07:27:04.407Z,6.43
2019-05-12T07:29:34.219Z,10.27
2019-05-12T07:32:07.223Z,9.87
2019-05-12T07:34:37.161Z,6.57
2019-05-12T07:37:07.986Z,6.30
2019-05-12T07:39:47.866Z,6.13
2019-05-12T07:42:13.423Z,4.03
2019-05-12T07:44:45.178Z,5.97
2019-05-12T07:47:19.197Z,3.93
2019-05-12T07:49:47.777Z,6.37
2019-05-12T07:52:18.229Z,6.27
2019-05-12T07:54:48.968Z,8.93
2019-05-12T07:57:20.026Z,7.10
2019-05-12T07:59:50.502Z,3.37
2019-05-12T08:02:25.519Z,4.53
2019-05-12T08:04:54.188Z,7.03
2019-05-12T08:07:28.817Z,6.83
2019-05-12T08:09:57.513Z,3.67
2019-05-12T08:12:28.243Z,6.03
2019-05-12T08:15:04.281Z,7.43
2019-05-12T08:17:33.532Z,7.57
2019-05-12T08:20:05.137Z,6.73
2019-05-12T08:22:36.796Z,7.70
2019-05-12T08:25:07.956Z,10.47
2019-05-12T08:27:39.250Z,7.63
2019-05-12T08:30:13.655Z,6.00
2019-05-12T08:32:44.357Z,5.90
2019-05-12T08:35:25.539Z,11.17
2019-05-12T08:37:48.766Z,6.03
2019-05-12T08:40:19.578Z,4.63
2019-05-12T08:42:50.027Z,4.70
2019-05-12T08:45:27.436Z,6.03
2019-05-12T08:47:54.631Z,8.83
2019-05-12T08:50:31.729Z,8.40
2019-05-12T08:52:57.300Z,6.10
2019-05-12T08:55:31.424Z,4.80
2019-05-12T08:57:59.862Z,6.23
2019-05-12T09:00:39.422Z,6.00
2019-05-12T09:03:08.347Z,4.87
2019-05-12T09:05:39.550Z,5.07
2019-05-12T09:08:10.025Z,2.90
2019-05-12T09:10:40.462Z,4.77
2019-05-12T09:13:10.888Z,5.50
2019-05-12T09:15:43.776Z,2.93
2019-05-12T09:18:14.676Z,7.67
2019-05-12T09:20:50.728Z,4.23
2019-05-12T09:23:17.631Z,5.83
2019-05-12T09:25:48.460Z,3.10
2019-05-12T09:28:19.401Z,5.27
2019-05-12T09:30:49.883Z,3.27
2019-05-12T09:33:21.526Z,4.33
2019-05-12T09:35:54.041Z,7.30
2019-05-12T09:38:26.384Z,3.63
2019-05-12T09:41:01.366Z,4.70
2019-05-12T09:43:29.601Z,4.23
2019-05-12T09:46:00.085Z,3.83
2019-05-12T09:48:30.906Z,5.80
2019-05-12T09:51:04.278Z,5.83
2019-05-12T09:53:34.109Z,4.63
2019-05-12T09:56:04.741Z,3.13
2019-05-12T09:58:36.156Z,3.27
2019-05-12T10:01:06.745Z,8.73
2019-05-12T10:03:39.995Z,4.37
2019-05-12T10:06:11.457Z,4.83
2019-05-12T10:08:43.424Z,5.13
2019-05-12T10:11:16.555Z,4.03
2019-05-12T10:13:46.065Z,2.93
2019-05-12T10:16:16.873Z,2.70
2019-05-12T10:18:51.108Z,4.73
2019-05-12T10:21:19.929Z,2.70
2019-05-12T10:24:00.132Z,10.60
2019-05-12T10:26:23.960Z,2.67
2019-05-12T10:28:58.392Z,5.10
2019-05-12T10:31:29.478Z,4.57
2019-05-12T10:34:19.233Z,9.87
2019-05-12T10:36:50.488Z,4.03
2019-05-12T10:39:20.920Z,2.70
2019-05-12T10:41:51.397Z,4.53
2019-05-12T10:44:22.233Z,2.67
2019-05-12T10:46:55.627Z,5.17
2019-05-12T10:49:26.125Z,3.77
2019-05-12T10:51:56.575Z,3.77
2019-05-12T10:54:27.747Z,4.93
2019-05-12T10:56:58.658Z,4.30
2019-05-12T10:59:33.140Z,2.97
2019-05-12T11:02:03.544Z,2.90
2019-05-12T11:04:38.988Z,2.73
2019-05-12T11:07:06.983Z,2.90
2019-05-12T11:09:37.426Z,5.03
2019-05-12T11:12:07.927Z,5.40
2019-05-12T11:14:38.380Z,3.90
2019-05-12T11:17:10.199Z,3.80
2019-05-12T11:19:49.298Z,5.70
2019-05-12T11:22:13.986Z,3.03
2019-05-12T11:24:44.619Z,3.40
2019-05-12T11:27:15.913Z,3.07
2019-05-12T11:29:49.481Z,5.07
2019-05-12T11:32:18.778Z,3.43
2019-05-12T11:34:49.301Z,3.10
2019-05-12T11:37:19.743Z,3.63
2019-05-12T11:39:50.256Z,5.00
2019-05-12T11:42:21.148Z,9.13
2019-05-12T11:44:52.241Z,3.77
2019-05-12T11:47:25.851Z,4.00
2019-05-12T11:49:58.465Z,4.13
2019-05-12T11:52:28.193Z,4.60
2019-05-12T11:54:58.634Z,3.77
2019-05-12T11:57:30.350Z,2.27
2019-05-12T12:00:02.236Z,5.97
2019-05-12T12:02:34.251Z,3.07
2019-05-12T12:05:05.315Z,3.50
2019-05-12T12:07:38.904Z,2.43
2019-05-12T12:10:08.331Z,5.87
2019-05-12T12:12:39.511Z,3.97
2019-05-12T12:15:13.651Z,4.67
2019-05-12T12:17:44.135Z,4.90
2019-05-12T12:20:22.273Z,1.63
2019-05-12T12:22:48.915Z,2.70
2019-05-12T12:25:23.803Z,3.27
2019-05-12T12:27:55.289Z,2.00
2019-05-12T12:30:26.898Z,3.53
2019-05-12T12:33:00.370Z,3.23
2019-05-12T12:35:29.519Z,3.17
2019-05-12T12:37:59.977Z,2.33
2019-05-12T12:40:30.776Z,2.23
2019-05-12T12:43:03.690Z,3.03
2019-05-12T12:45:40.454Z,5.13
2019-05-12T12:48:13.557Z,2.10
2019-05-12T12:50:44.531Z,1.77
2019-05-12T12:53:15.157Z,3.67
2019-05-12T12:55:46.311Z,4.40
2019-05-12T12:58:21.221Z,2.07
2019-05-12T13:00:53.783Z,3.93
2019-05-12T13:03:25.721Z,2.97
2019-05-12T13:05:54.311Z,2.90
2019-05-12T13:08:25.571Z,1.97
2019-05-12T13:10:56.034Z,2.23
2019-05-12T13:13:26.770Z,3.30
2019-05-12T13:15:57.285Z,2.17
2019-05-12T13:18:32.870Z,1.53
2019-05-12T13:21:03.223Z,3.17
2019-05-12T13:23:40.499Z,1.70
2019-05-12T13:26:05.209Z,3.37
2019-05-12T13:28:35.925Z,1.43
2019-05-12T13:31:12.832Z,2.60
2019-05-12T13:33:39.208Z,1.93
2019-05-12T13:36:09.658Z,2.67
2019-05-12T13:38:40.748Z,3.27
2019-05-12T13:41:15.948Z,1.57
2019-05-12T13:43:43.900Z,1.20
2019-05-12T13:46:14.451Z,3.43
2019-05-12T13:48:49.756Z,2.70
2019-05-12T13:51:17.749Z,2.60
2019-05-12T13:53:50.302Z,2.93
2019-05-12T13:56:25.834Z,3.77
2019-05-12T13:58:53.977Z,2.40
2019-05-12T14:01:25.157Z,3.50
2019-05-12T14:03:56.034Z,5.97
2019-05-12T14:06:31.994Z,2.50
2019-05-12T14:08:58.600Z,2.40
2019-05-12T14:11:29.076Z,1.97
2019-05-12T14:14:00.249Z,3.33
2019-05-12T14:16:31.081Z,2.63
2019-05-12T14:19:03.605Z,3.17
2019-05-12T14:21:41.236Z,1.43
2019-05-12T14:24:05.945Z,2.63
2019-05-12T14:26:39.411Z,2.67
2019-05-12T14:29:08.525Z,3.43
2019-05-12T14:31:48.476Z,2.63
2019-05-12T14:34:18.733Z,4.13
2019-05-12T14:36:43.763Z,2.07
2019-05-12T14:39:14.200Z,2.70
2019-05-12T14:41:53.064Z,3.00
2019-05-12T14:44:17.837Z,2.13
2019-05-12T14:46:50.641Z,3.57
2019-05-12T14:49:28.525Z,4.10
2019-05-12T14:51:53.750Z,2.63
2019-05-12T14:54:24.216Z,3.90
2019-05-12T14:56:57.754Z,4.57
2019-05-12T14:59:30.211Z,3.07
2019-05-12T15:02:03.267Z,3.77
2019-05-12T15:04:32.161Z,4.50
2019-05-12T15:07:08.017Z,5.22
2019-05-12T15:09:36.885Z,2.83
2019-05-12T15:12:07.339Z,5.03
2019-05-12T15:14:38.318Z,5.40
2019-05-12T15:17:13.830Z,2.40
2019-05-12T15:19:43.864Z,2.87
2019-05-12T15:22:14.792Z,4.10
2019-05-12T15:24:49.218Z,2.67
2019-05-12T15:27:17.612Z,4.67
2019-05-12T15:29:50.091Z,3.53
2019-05-12T15:32:20.272Z,5.30
2019-05-12T15:34:50.702Z,2.87
2019-05-12T15:37:23.767Z,7.20
2019-05-12T15:39:54.066Z,2.87
2019-05-12T15:42:24.891Z,2.37
2019-05-12T15:44:56.616Z,6.60
2019-05-12T15:47:29.925Z,5.47
2019-05-12T15:49:59.373Z,4.20
2019-05-12T15:52:38.272Z,4.90
2019-05-12T15:55:04.738Z,3.47
2019-05-12T15:57:37.332Z,2.63
2019-05-12T16:00:08.044Z,2.90
2019-05-12T16:02:39.814Z,6.67
2019-05-12T16:05:10.330Z,3.53
2019-05-12T16:07:43.610Z,1.53
2019-05-12T16:10:14.826Z,4.00
2019-05-12T16:12:45.318Z,2.03
2019-05-12T16:15:19.132Z,3.43
2019-05-12T16:17:48.499Z,4.83
2019-05-12T16:20:20.134Z,2.17
2019-05-12T16:22:53.169Z,2.57
2019-05-12T16:25:29.055Z,3.70
2019-05-12T16:27:56.187Z,2.27
2019-05-12T16:30:27.342Z,1.87
2019-05-12T16:32:58.414Z,4.33
2019-05-12T16:35:31.816Z,5.60
2019-05-12T16:38:05.910Z,1.93
2019-05-12T16:40:34.506Z,1.33
2019-05-12T16:43:06.438Z,3.80
2019-05-12T16:45:36.967Z,2.60
2019-05-12T16:48:11.330Z,2.97
2019-05-12T16:50:40.501Z,5.77
2019-05-12T16:53:13.403Z,4.33
2019-05-12T16:55:48.483Z,6.53
2019-05-12T16:58:15.688Z,3.20
2019-05-12T17:00:49.737Z,2.43
2019-05-12T17:03:18.881Z,2.77
2019-05-12T17:05:50.175Z,4.50
2019-05-12T17:08:23.876Z,4.83
2019-05-12T17:11:00.895Z,3.07
2019-05-12T17:13:27.643Z,2.90
2019-05-12T17:16:00.131Z,4.10
2019-05-12T17:18:33.725Z,6.00
2019-05-12T17:21:04.432Z,5.00
2019-05-12T17:23:38.997Z,3.10
2019-05-12T17:26:09.448Z,3.03
2019-05-12T17:28:40.097Z,4.10
2019-05-12T17:31:10.528Z,5.17
2019-05-12T17:33:43.284Z,3.47
2019-05-12T17:36:17.568Z,2.67
2019-05-12T17:38:51.062Z,5.13
2019-05-12T17:41:18.914Z,6.50
2019-05-12T17:43:59.573Z,4.90
2019-05-12T17:46:24.377Z,2.70
2019-05-12T17:48:55.219Z,8.43
2019-05-12T17:51:30.795Z,3.03
2019-05-12T17:53:59.047Z,2.27
2019-05-12T17:56:36.677Z,3.87
2019-05-12T17:59:04.374Z,3.93
2019-05-12T18:01:35.702Z,3.10
2019-05-12T18:04:06.072Z,2.60
2019-05-12T18:06:36.833Z,3.77
2019-05-12T18:09:14.933Z,5.40
2019-05-12T18:11:46.303Z,3.50
2019-05-12T18:14:17.573Z,4.30
2019-05-12T18:16:53.941Z,5.10
2019-05-12T18:19:20.572Z,2.70
2019-05-12T18:21:54.900Z,5.60
2019-05-12T18:24:24.334Z,4.17
2019-05-12T18:27:02.149Z,3.73
2019-05-12T18:29:28.217Z,8.03
2019-05-12T18:31:59.510Z,5.63
2019-05-12T18:34:30.891Z,3.57
2019-05-12T18:37:01.386Z,4.80
2019-05-12T18:39:34.333Z,2.13
2019-05-12T18:42:04.689Z,7.53
2019-05-12T18:44:35.842Z,7.67
2019-05-12T18:47:06.297Z,3.40
2019-05-12T18:49:42.095Z,4.37
2019-05-12T18:52:14.403Z,5.50
2019-05-12T18:54:52.245Z,3.30
2019-05-12T18:57:16.833Z,5.87
2019-05-12T18:59:54.274Z,3.60
2019-05-12T19:02:23.554Z,3.87
2019-05-12T19:04:53.845Z,4.17
2019-05-12T19:07:38.979Z,6.90
2019-05-12T19:09:59.174Z,4.60
2019-05-12T19:12:32.624Z,8.60
2019-05-12T19:15:04.320Z,2.17
2019-05-12T19:17:33.960Z,5.83
2019-05-12T19:20:05.299Z,8.87
2019-05-12T19:22:39.362Z,3.30
2019-05-12T19:25:08.242Z,6.20
2019-05-12T19:27:39.060Z,3.80
2019-05-12T19:30:09.533Z,4.73
2019-05-12T19:32:41.145Z,5.17
2019-05-12T19:35:15.901Z,2.83
2019-05-12T19:37:45.323Z,6.33
2019-05-12T19:40:17.676Z,6.97
2019-05-12T19:42:53.841Z,3.30
2019-05-12T19:45:24.912Z,3.03
2019-05-12T19:47:54.997Z,5.87
2019-05-12T19:50:25.775Z,3.60
2019-05-12T19:52:56.279Z,5.40
2019-05-12T19:55:26.712Z,3.97
2019-05-12T19:57:57.167Z,5.30
2019-05-12T20:00:27.958Z,4.77
2019-05-12T20:02:58.753Z,6.27
2019-05-12T20:05:30.780Z,5.00
2019-05-12T20:08:01.283Z,10.20
2019-05-12T20:10:44.845Z,4.50
2019-05-12T20:13:08.979Z,3.80
2019-05-12T20:15:41.640Z,5.70
2019-05-12T20:18:14.724Z,5.83
2019-05-12T20:20:46.247Z,4.90
2019-05-12T20:23:16.699Z,4.17
2019-05-12T20:25:49.506Z,4.07
2019-05-12T20:28:20.925Z,4.07
2019-05-12T20:30:54.325Z,3.10
2019-05-12T20:33:24.191Z,5.57
2019-05-12T20:35:54.907Z,4.90
2019-05-12T20:38:33.940Z,4.43
2019-05-12T20:40:58.114Z,5.17
2019-05-12T20:43:32.404Z,6.37
2019-05-12T20:46:03.718Z,5.57
2019-05-12T20:48:35.323Z,6.80
2019-05-12T20:51:08.739Z,3.57
2019-05-12T20:53:38.249Z,6.23
2019-05-12T20:56:12.121Z,9.50
2019-05-12T20:58:43.570Z,4.77
2019-05-12T21:01:13.979Z,6.27
2019-05-12T21:03:46.363Z,5.60
2019-05-12T21:06:18.589Z,8.67
2019-05-12T21:08:53.952Z,8.97
2019-05-12T21:11:20.926Z,4.80
2019-05-12T21:13:51.412Z,5.67
2019-05-12T21:16:30.904Z,6.30
2019-05-12T21:19:02.123Z,5.00
2019-05-12T21:21:33.158Z,4.33
2019-05-12T21:23:59.423Z,6.97
2019-05-12T21:26:34.754Z,8.30
2019-05-12T21:29:04.722Z,4.40
2019-05-12T21:31:35.633Z,5.67
2019-05-12T21:34:06.863Z,6.43
2019-05-12T21:36:37.351Z,9.23
2019-05-12T21:39:10.384Z,4.87
2019-05-12T21:41:46.380Z,5.53
2019-05-12T21:44:14.219Z,5.07
2019-05-12T21:46:57.413Z,7.53
2019-05-12T21:49:17.013Z,7.37
2019-05-12T21:51:50.549Z,3.97
2019-05-12T21:54:20.616Z,5.30
2019-05-12T21:56:51.389Z,6.17
2019-05-12T21:59:23.342Z,11.30
2019-05-12T22:01:54.194Z,8.47
2019-05-12T22:04:24.694Z,9.40
2019-05-12T22:06:56.963Z,5.70
2019-05-12T22:09:34.979Z,10.43
2019-05-12T22:12:00.007Z,7.47
2019-05-12T22:14:38.659Z,6.03
2019-05-12T22:17:04.551Z,5.73
2019-05-12T22:19:38.087Z,7.43
2019-05-12T22:22:07.850Z,6.17
2019-05-12T22:24:39.089Z,9.60
2019-05-12T22:27:16.145Z,9.07
2019-05-12T22:29:43.683Z,7.03
2019-05-12T22:32:19.163Z,8.17
2019-05-12T22:34:47.117Z,8.73
2019-05-12T22:37:17.909Z,5.90
2019-05-12T22:39:48.343Z,8.37
2019-05-12T22:42:21.678Z,5.23
2019-05-12T22:44:53.018Z,6.43
2019-05-12T22:47:24.072Z,10.03
2019-05-12T22:49:56.932Z,7.57
2019-05-12T22:52:27.861Z,7.97
2019-05-12T22:54:58.287Z,5.67
2019-05-12T22:57:29.117Z,6.27
2019-05-12T23:00:03.834Z,6.33
2019-05-12T23:02:33.837Z,9.80
2019-05-12T23:05:05.136Z,7.07
2019-05-12T23:07:35.560Z,6.23
2019-05-12T23:10:11.030Z,8.90
2019-05-12T23:12:39.580Z,11.63
2019-05-12T23:15:10.473Z,10.23
2019-05-12T23:17:45.388Z,8.10
2019-05-12T23:20:13.823Z,7.60
2019-05-12T23:22:44.684Z,10.70
2019-05-12T23:25:20.012Z,10.60
2019-05-12T23:27:47.693Z,10.80
2019-05-12T23:30:18.116Z,7.03
2019-05-12T23:32:51.507Z,11.83
2019-05-12T23:35:21.374Z,6.37
2019-05-12T23:37:53.591Z,7.00
2019-05-12T23:40:24.226Z,9.00
2019-05-12T23:42:54.979Z,8.70
2019-05-12T23:45:25.409Z,10.27
2019-05-12T23:47:56.556Z,9.87
2019-05-12T23:50:26.990Z,12.70
2019-05-12T23:52:57.505Z,11.77
2019-05-12T23:55:28.805Z,11.33
2019-05-12T23:58:00.386Z,8.13
